sensor_id;sensor_type;location;lat;lon;timestamp;P1;durP1;ratioP1;P2;durP2;ratioP2
11086;SDS011;5597;47.588;9.642;2023-07-13T00:02:09;2.73;;;2.40;;
11086;SDS011;5597;47.588;9.642;2023-07-13T00:04:35;2.40;;;2.20;;
11086;SDS011;5597;47.588;9.642;2023-07-13T00:07:01;3.13;;;2.63;;
11086;SDS011;5597;47.588;9.642;2023-07-13T00:09:27;2.77;;;2.50;;
11086;SDS011;5597;47.588;9.642;2023-07-13T00:11:54;3.00;;;2.70;;
11086;SDS011;5597;47.588;9.642;2023-07-13T00:14:21;2.50;;;2.30;;
11086;SDS011;5597;47.588;9.642;2023-07-13T00:16:47;2.30;;;2.10;;
11086;SDS011;5597;47.588;9.642;2023-07-13T00:19:13;3.47;;;2.70;;
11086;SDS011;5597;47.588;9.642;2023-07-13T00:21:39;3.13;;;2.63;;
11086;SDS011;5597;47.588;9.642;2023-07-13T00:24:06;3.83;;;2.90;;
11086;SDS011;5597;47.588;9.642;2023-07-13T00:26:33;3.10;;;2.80;;
11086;SDS011;5597;47.588;9.642;2023-07-13T00:28:59;2.97;;;2.67;;
11086;SDS011;5597;47.588;9.642;2023-07-13T00:31:25;3.47;;;2.90;;
11086;SDS011;5597;47.588;9.642;2023-07-13T00:33:50;3.10;;;2.80;;
11086;SDS011;5597;47.588;9.642;2023-07-13T00:36:16;2.73;;;2.53;;
11086;SDS011;5597;47.588;9.642;2023-07-13T00:38:42;3.37;;;2.53;;
11086;SDS011;5597;47.588;9.642;2023-07-13T00:41:08;2.90;;;2.53;;
11086;SDS011;5597;47.588;9.642;2023-07-13T00:43:34;3.00;;;2.67;;
11086;SDS011;5597;47.588;9.642;2023-07-13T00:46:15;3.47;;;2.80;;
11086;SDS011;5597;47.588;9.642;2023-07-13T00:48:43;3.30;;;3.00;;
11086;SDS011;5597;47.588;9.642;2023-07-13T00:51:12;3.20;;;2.90;;
11086;SDS011;5597;47.588;9.642;2023-07-13T00:53:39;4.13;;;3.13;;
11086;SDS011;5597;47.588;9.642;2023-07-13T00:56:05;3.57;;;3.13;;
11086;SDS011;5597;47.588;9.642;2023-07-13T00:58:31;3.20;;;2.90;;
11086;SDS011;5597;47.588;9.642;2023-07-13T01:00:58;3.70;;;2.80;;
11086;SDS011;5597;47.588;9.642;2023-07-13T01:03:23;2.90;;;2.60;;
11086;SDS011;5597;47.588;9.642;2023-07-13T01:05:49;3.13;;;2.83;;
11086;SDS011;5597;47.588;9.642;2023-07-13T01:08:15;2.60;;;2.40;;
11086;SDS011;5597;47.588;9.642;2023-07-13T01:10:50;2.80;;;2.60;;
11086;SDS011;5597;47.588;9.642;2023-07-13T01:13:17;2.60;;;2.40;;
11086;SDS011;5597;47.588;9.642;2023-07-13T01:15:43;2.63;;;2.43;;
11086;SDS011;5597;47.588;9.642;2023-07-13T01:18:11;2.93;;;2.67;;
11086;SDS011;5597;47.588;9.642;2023-07-13T01:20:40;3.10;;;2.67;;
11086;SDS011;5597;47.588;9.642;2023-07-13T01:23:07;3.20;;;2.90;;
11086;SDS011;5597;47.588;9.642;2023-07-13T01:25:35;3.27;;;2.60;;
11086;SDS011;5597;47.588;9.642;2023-07-13T01:28:03;2.70;;;2.40;;
11086;SDS011;5597;47.588;9.642;2023-07-13T01:30:30;3.27;;;2.40;;
11086;SDS011;5597;47.588;9.642;2023-07-13T01:32:56;3.23;;;2.93;;
11086;SDS011;5597;47.588;9.642;2023-07-13T01:35:22;3.53;;;2.63;;
11086;SDS011;5597;47.588;9.642;2023-07-13T01:37:50;2.60;;;2.40;;
11086;SDS011;5597;47.588;9.642;2023-07-13T01:40:16;2.73;;;2.53;;
11086;SDS011;5597;47.588;9.642;2023-07-13T01:42:42;2.50;;;2.30;;
11086;SDS011;5597;47.588;9.642;2023-07-13T01:45:07;2.60;;;2.40;;
11086;SDS011;5597;47.588;9.642;2023-07-13T01:47:33;2.50;;;2.30;;
11086;SDS011;5597;47.588;9.642;2023-07-13T01:49:58;2.83;;;2.57;;
11086;SDS011;5597;47.588;9.642;2023-07-13T01:52:24;2.47;;;2.27;;
11086;SDS011;5597;47.588;9.642;2023-07-13T01:54:50;2.77;;;2.50;;
11086;SDS011;5597;47.588;9.642;2023-07-13T01:57:15;2.73;;;2.53;;
11086;SDS011;5597;47.588;9.642;2023-07-13T01:59:41;3.07;;;2.73;;
11086;SDS011;5597;47.588;9.642;2023-07-13T02:02:06;2.87;;;2.60;;
11086;SDS011;5597;47.588;9.642;2023-07-13T02:04:33;3.47;;;2.33;;
11086;SDS011;5597;47.588;9.642;2023-07-13T02:06:59;2.87;;;2.57;;
11086;SDS011;5597;47.588;9.642;2023-07-13T02:09:25;2.57;;;2.37;;
11086;SDS011;5597;47.588;9.642;2023-07-13T02:11:50;2.83;;;2.50;;
11086;SDS011;5597;47.588;9.642;2023-07-13T02:14:16;2.53;;;2.33;;
11086;SDS011;5597;47.588;9.642;2023-07-13T02:16:42;2.80;;;2.30;;
11086;SDS011;5597;47.588;9.642;2023-07-13T02:19:07;3.30;;;2.90;;
11086;SDS011;5597;47.588;9.642;2023-07-13T02:21:33;2.80;;;2.50;;
11086;SDS011;5597;47.588;9.642;2023-07-13T02:23:59;2.57;;;2.37;;
11086;SDS011;5597;47.588;9.642;2023-07-13T02:26:25;3.00;;;2.60;;
11086;SDS011;5597;47.588;9.642;2023-07-13T02:28:51;3.50;;;2.70;;
11086;SDS011;5597;47.588;9.642;2023-07-13T02:31:17;2.97;;;2.73;;
11086;SDS011;5597;47.588;9.642;2023-07-13T02:33:43;2.87;;;2.20;;
11086;SDS011;5597;47.588;9.642;2023-07-13T02:36:09;3.60;;;2.53;;
11086;SDS011;5597;47.588;9.642;2023-07-13T02:38:35;2.83;;;2.57;;
11086;SDS011;5597;47.588;9.642;2023-07-13T02:41:04;2.77;;;2.47;;
11086;SDS011;5597;47.588;9.642;2023-07-13T02:43:31;2.90;;;2.33;;
11086;SDS011;5597;47.588;9.642;2023-07-13T02:45:58;2.37;;;2.17;;
11086;SDS011;5597;47.588;9.642;2023-07-13T02:48:29;2.40;;;2.07;;
11086;SDS011;5597;47.588;9.642;2023-07-13T02:50:55;2.30;;;2.10;;
11086;SDS011;5597;47.588;9.642;2023-07-13T02:53:20;2.20;;;1.97;;
11086;SDS011;5597;47.588;9.642;2023-07-13T02:55:46;2.33;;;2.13;;
11086;SDS011;5597;47.588;9.642;2023-07-13T02:58:12;2.23;;;2.03;;
11086;SDS011;5597;47.588;9.642;2023-07-13T03:00:41;2.30;;;2.10;;
11086;SDS011;5597;47.588;9.642;2023-07-13T03:03:08;2.80;;;2.50;;
11086;SDS011;5597;47.588;9.642;2023-07-13T03:05:33;2.57;;;2.37;;
11086;SDS011;5597;47.588;9.642;2023-07-13T03:07:59;2.60;;;2.30;;
11086;SDS011;5597;47.588;9.642;2023-07-13T03:10:24;2.60;;;2.40;;
11086;SDS011;5597;47.588;9.642;2023-07-13T03:12:50;2.33;;;2.07;;
11086;SDS011;5597;47.588;9.642;2023-07-13T03:15:15;2.50;;;2.13;;
11086;SDS011;5597;47.588;9.642;2023-07-13T03:17:41;2.30;;;2.10;;
11086;SDS011;5597;47.588;9.642;2023-07-13T03:20:07;3.13;;;2.40;;
11086;SDS011;5597;47.588;9.642;2023-07-13T03:22:33;2.60;;;2.40;;
11086;SDS011;5597;47.588;9.642;2023-07-13T03:24:58;2.53;;;2.13;;
11086;SDS011;5597;47.588;9.642;2023-07-13T03:27:24;2.60;;;2.30;;
11086;SDS011;5597;47.588;9.642;2023-07-13T03:29:49;2.53;;;2.33;;
11086;SDS011;5597;47.588;9.642;2023-07-13T03:32:15;2.47;;;2.27;;
11086;SDS011;5597;47.588;9.642;2023-07-13T03:34:40;2.90;;;2.50;;
11086;SDS011;5597;47.588;9.642;2023-07-13T03:37:06;2.70;;;2.50;;
11086;SDS011;5597;47.588;9.642;2023-07-13T03:39:31;2.63;;;2.43;;
11086;SDS011;5597;47.588;9.642;2023-07-13T03:41:57;2.60;;;2.37;;
11086;SDS011;5597;47.588;9.642;2023-07-13T03:44:22;3.60;;;2.40;;
11086;SDS011;5597;47.588;9.642;2023-07-13T03:46:48;2.40;;;2.20;;
11086;SDS011;5597;47.588;9.642;2023-07-13T03:49:14;2.40;;;2.20;;
11086;SDS011;5597;47.588;9.642;2023-07-13T03:51:39;2.77;;;2.43;;
11086;SDS011;5597;47.588;9.642;2023-07-13T03:54:05;2.33;;;2.13;;
11086;SDS011;5597;47.588;9.642;2023-07-13T03:56:31;3.60;;;2.50;;
11086;SDS011;5597;47.588;9.642;2023-07-13T03:58:58;2.40;;;2.20;;
11086;SDS011;5597;47.588;9.642;2023-07-13T04:01:24;2.90;;;2.63;;
11086;SDS011;5597;47.588;9.642;2023-07-13T04:03:52;2.97;;;2.30;;
11086;SDS011;5597;47.588;9.642;2023-07-13T04:06:19;2.40;;;2.20;;
11086;SDS011;5597;47.588;9.642;2023-07-13T04:08:50;2.53;;;2.33;;
11086;SDS011;5597;47.588;9.642;2023-07-13T04:11:19;2.63;;;2.40;;
11086;SDS011;5597;47.588;9.642;2023-07-13T04:13:46;3.80;;;2.93;;
11086;SDS011;5597;47.588;9.642;2023-07-13T04:16:12;2.43;;;2.23;;
11086;SDS011;5597;47.588;9.642;2023-07-13T04:18:38;2.83;;;2.53;;
11086;SDS011;5597;47.588;9.642;2023-07-13T04:21:04;2.77;;;2.50;;
11086;SDS011;5597;47.588;9.642;2023-07-13T04:23:30;3.20;;;2.90;;
11086;SDS011;5597;47.588;9.642;2023-07-13T04:25:55;3.83;;;2.33;;
11086;SDS011;5597;47.588;9.642;2023-07-13T04:28:22;2.97;;;2.60;;
11086;SDS011;5597;47.588;9.642;2023-07-13T04:30:49;2.57;;;2.23;;
11086;SDS011;5597;47.588;9.642;2023-07-13T04:33:15;2.40;;;2.20;;
11086;SDS011;5597;47.588;9.642;2023-07-13T04:35:42;2.37;;;2.17;;
11086;SDS011;5597;47.588;9.642;2023-07-13T04:38:08;4.00;;;2.40;;
11086;SDS011;5597;47.588;9.642;2023-07-13T04:40:36;2.40;;;2.20;;
11086;SDS011;5597;47.588;9.642;2023-07-13T04:43:02;2.50;;;2.30;;
11086;SDS011;5597;47.588;9.642;2023-07-13T04:45:27;2.40;;;2.20;;
11086;SDS011;5597;47.588;9.642;2023-07-13T04:47:53;3.27;;;2.30;;
11086;SDS011;5597;47.588;9.642;2023-07-13T04:50:19;2.50;;;2.30;;
11086;SDS011;5597;47.588;9.642;2023-07-13T04:52:48;2.87;;;2.37;;
11086;SDS011;5597;47.588;9.642;2023-07-13T04:55:14;3.63;;;2.80;;
11086;SDS011;5597;47.588;9.642;2023-07-13T04:57:40;3.00;;;2.70;;
11086;SDS011;5597;47.588;9.642;2023-07-13T05:00:05;2.70;;;2.43;;
11086;SDS011;5597;47.588;9.642;2023-07-13T05:02:32;2.47;;;2.27;;
11086;SDS011;5597;47.588;9.642;2023-07-13T05:04:59;3.47;;;2.70;;
11086;SDS011;5597;47.588;9.642;2023-07-13T05:07:25;2.73;;;2.53;;
11086;SDS011;5597;47.588;9.642;2023-07-13T05:09:51;2.87;;;2.63;;
11086;SDS011;5597;47.588;9.642;2023-07-13T05:12:17;5.27;;;3.60;;
11086;SDS011;5597;47.588;9.642;2023-07-13T05:14:43;5.33;;;3.20;;
11086;SDS011;5597;47.588;9.642;2023-07-13T05:17:08;5.07;;;3.50;;
11086;SDS011;5597;47.588;9.642;2023-07-13T05:19:34;5.17;;;3.37;;
11086;SDS011;5597;47.588;9.642;2023-07-13T05:22:00;3.60;;;3.30;;
11086;SDS011;5597;47.588;9.642;2023-07-13T05:24:27;3.87;;;3.20;;
11086;SDS011;5597;47.588;9.642;2023-07-13T05:26:53;4.53;;;3.80;;
11086;SDS011;5597;47.588;9.642;2023-07-13T05:29:19;4.43;;;3.70;;
11086;SDS011;5597;47.588;9.642;2023-07-13T05:31:45;3.80;;;3.20;;
11086;SDS011;5597;47.588;9.642;2023-07-13T05:34:10;3.30;;;3.00;;
11086;SDS011;5597;47.588;9.642;2023-07-13T05:36:36;3.60;;;3.30;;
11086;SDS011;5597;47.588;9.642;2023-07-13T05:39:02;2.97;;;2.70;;
11086;SDS011;5597;47.588;9.642;2023-07-13T05:41:29;2.67;;;2.47;;
11086;SDS011;5597;47.588;9.642;2023-07-13T05:43:54;3.20;;;2.90;;
11086;SDS011;5597;47.588;9.642;2023-07-13T05:46:20;3.43;;;3.13;;
11086;SDS011;5597;47.588;9.642;2023-07-13T05:48:45;3.73;;;3.03;;
11086;SDS011;5597;47.588;9.642;2023-07-13T05:51:11;3.50;;;3.13;;
11086;SDS011;5597;47.588;9.642;2023-07-13T05:53:37;3.07;;;2.77;;
11086;SDS011;5597;47.588;9.642;2023-07-13T05:56:03;3.30;;;2.97;;
11086;SDS011;5597;47.588;9.642;2023-07-13T05:58:29;3.00;;;2.63;;
11086;SDS011;5597;47.588;9.642;2023-07-13T06:01:02;2.90;;;2.70;;
11086;SDS011;5597;47.588;9.642;2023-07-13T06:03:32;3.00;;;2.80;;
11086;SDS011;5597;47.588;9.642;2023-07-13T06:05:58;3.03;;;2.50;;
11086;SDS011;5597;47.588;9.642;2023-07-13T06:08:25;2.97;;;2.70;;
11086;SDS011;5597;47.588;9.642;2023-07-13T06:10:51;3.17;;;2.90;;
11086;SDS011;5597;47.588;9.642;2023-07-13T06:13:16;2.53;;;2.33;;
11086;SDS011;5597;47.588;9.642;2023-07-13T06:15:47;3.70;;;2.80;;
11086;SDS011;5597;47.588;9.642;2023-07-13T06:18:16;3.87;;;3.20;;
11086;SDS011;5597;47.588;9.642;2023-07-13T06:20:41;3.87;;;3.20;;
11086;SDS011;5597;47.588;9.642;2023-07-13T06:23:07;4.27;;;2.80;;
11086;SDS011;5597;47.588;9.642;2023-07-13T06:25:32;3.50;;;2.90;;
11086;SDS011;5597;47.588;9.642;2023-07-13T06:27:58;3.47;;;3.17;;
11086;SDS011;5597;47.588;9.642;2023-07-13T06:30:24;3.33;;;2.97;;
11086;SDS011;5597;47.588;9.642;2023-07-13T06:32:49;3.33;;;3.00;;
11086;SDS011;5597;47.588;9.642;2023-07-13T06:35:15;2.60;;;2.40;;
11086;SDS011;5597;47.588;9.642;2023-07-13T06:37:41;3.50;;;2.60;;
11086;SDS011;5597;47.588;9.642;2023-07-13T06:40:07;2.67;;;2.47;;
11086;SDS011;5597;47.588;9.642;2023-07-13T06:42:32;3.20;;;2.90;;
11086;SDS011;5597;47.588;9.642;2023-07-13T06:44:58;2.70;;;2.50;;
11086;SDS011;5597;47.588;9.642;2023-07-13T06:47:24;4.93;;;2.90;;
11086;SDS011;5597;47.588;9.642;2023-07-13T06:49:49;2.93;;;2.60;;
11086;SDS011;5597;47.588;9.642;2023-07-13T06:52:15;3.63;;;2.50;;
11086;SDS011;5597;47.588;9.642;2023-07-13T06:54:40;2.93;;;2.70;;
11086;SDS011;5597;47.588;9.642;2023-07-13T06:57:06;2.50;;;2.30;;
11086;SDS011;5597;47.588;9.642;2023-07-13T06:59:32;3.30;;;3.00;;
11086;SDS011;5597;47.588;9.642;2023-07-13T07:01:57;3.50;;;3.00;;
11086;SDS011;5597;47.588;9.642;2023-07-13T07:04:23;3.10;;;2.80;;
11086;SDS011;5597;47.588;9.642;2023-07-13T07:06:48;2.70;;;2.50;;
11086;SDS011;5597;47.588;9.642;2023-07-13T07:09:14;4.50;;;2.90;;
11086;SDS011;5597;47.588;9.642;2023-07-13T07:11:41;2.93;;;2.70;;
11086;SDS011;5597;47.588;9.642;2023-07-13T07:14:07;2.80;;;2.60;;
11086;SDS011;5597;47.588;9.642;2023-07-13T07:16:33;3.87;;;2.80;;
11086;SDS011;5597;47.588;9.642;2023-07-13T07:18:58;3.00;;;2.70;;
11086;SDS011;5597;47.588;9.642;2023-07-13T07:21:24;3.53;;;3.00;;
11086;SDS011;5597;47.588;9.642;2023-07-13T07:23:51;3.23;;;2.90;;
11086;SDS011;5597;47.588;9.642;2023-07-13T07:26:17;2.47;;;2.27;;
11086;SDS011;5597;47.588;9.642;2023-07-13T07:28:43;3.33;;;3.00;;
11086;SDS011;5597;47.588;9.642;2023-07-13T07:31:09;3.83;;;2.83;;
11086;SDS011;5597;47.588;9.642;2023-07-13T07:33:35;3.33;;;2.80;;
11086;SDS011;5597;47.588;9.642;2023-07-13T07:36:00;3.13;;;2.37;;
11086;SDS011;5597;47.588;9.642;2023-07-13T07:38:27;3.10;;;2.80;;
11086;SDS011;5597;47.588;9.642;2023-07-13T07:40:52;3.00;;;2.70;;
11086;SDS011;5597;47.588;9.642;2023-07-13T07:43:18;3.20;;;2.70;;
11086;SDS011;5597;47.588;9.642;2023-07-13T07:45:44;2.83;;;2.47;;
11086;SDS011;5597;47.588;9.642;2023-07-13T07:48:10;3.27;;;2.90;;
11086;SDS011;5597;47.588;9.642;2023-07-13T07:50:37;3.00;;;2.70;;
11086;SDS011;5597;47.588;9.642;2023-07-13T07:53:03;2.67;;;2.43;;
11086;SDS011;5597;47.588;9.642;2023-07-13T07:55:32;3.20;;;2.90;;
11086;SDS011;5597;47.588;9.642;2023-07-13T07:57:59;4.10;;;3.10;;
11086;SDS011;5597;47.588;9.642;2023-07-13T08:00:24;3.27;;;2.70;;
11086;SDS011;5597;47.588;9.642;2023-07-13T08:02:50;2.90;;;2.70;;
11086;SDS011;5597;47.588;9.642;2023-07-13T08:05:16;2.90;;;2.70;;
11086;SDS011;5597;47.588;9.642;2023-07-13T08:07:41;2.67;;;2.43;;
11086;SDS011;5597;47.588;9.642;2023-07-13T08:10:10;4.23;;;3.20;;
11086;SDS011;5597;47.588;9.642;2023-07-13T08:12:39;3.90;;;2.80;;
11086;SDS011;5597;47.588;9.642;2023-07-13T08:15:06;3.13;;;2.80;;
11086;SDS011;5597;47.588;9.642;2023-07-13T08:17:35;3.53;;;3.23;;
11086;SDS011;5597;47.588;9.642;2023-07-13T08:20:01;3.90;;;3.10;;
11086;SDS011;5597;47.588;9.642;2023-07-13T08:22:26;3.70;;;3.30;;
11086;SDS011;5597;47.588;9.642;2023-07-13T08:24:52;4.30;;;3.50;;
11086;SDS011;5597;47.588;9.642;2023-07-13T08:27:21;3.90;;;3.40;;
11086;SDS011;5597;47.588;9.642;2023-07-13T08:29:48;3.57;;;3.27;;
11086;SDS011;5597;47.588;9.642;2023-07-13T08:32:14;3.60;;;3.20;;
11086;SDS011;5597;47.588;9.642;2023-07-13T08:34:40;3.30;;;3.00;;
11086;SDS011;5597;47.588;9.642;2023-07-13T08:37:06;3.70;;;3.10;;
11086;SDS011;5597;47.588;9.642;2023-07-13T08:39:32;3.43;;;3.13;;
11086;SDS011;5597;47.588;9.642;2023-07-13T08:42:02;3.30;;;3.00;;
11086;SDS011;5597;47.588;9.642;2023-07-13T08:47:26;3.63;;;3.20;;
11086;SDS011;5597;47.588;9.642;2023-07-13T08:49:55;3.40;;;2.90;;
11086;SDS011;5597;47.588;9.642;2023-07-13T08:52:32;3.77;;;3.20;;
11086;SDS011;5597;47.588;9.642;2023-07-13T08:55:04;3.27;;;2.77;;
11086;SDS011;5597;47.588;9.642;2023-07-13T08:57:36;3.43;;;3.00;;
11086;SDS011;5597;47.588;9.642;2023-07-13T09:00:07;5.07;;;3.20;;
11086;SDS011;5597;47.588;9.642;2023-07-13T09:02:41;3.67;;;3.10;;
11086;SDS011;5597;47.588;9.642;2023-07-13T09:05:14;3.30;;;2.80;;
11086;SDS011;5597;47.588;9.642;2023-07-13T09:10:46;3.40;;;2.77;;
11086;SDS011;5597;47.588;9.642;2023-07-13T09:15:57;4.63;;;2.97;;
11086;SDS011;5597;47.588;9.642;2023-07-13T09:21:15;3.93;;;2.50;;
11086;SDS011;5597;47.588;9.642;2023-07-13T09:23:47;3.23;;;2.33;;
11086;SDS011;5597;47.588;9.642;2023-07-13T09:26:14;2.60;;;2.40;;
11086;SDS011;5597;47.588;9.642;2023-07-13T09:28:45;4.27;;;2.50;;
11086;SDS011;5597;47.588;9.642;2023-07-13T09:31:38;3.73;;;2.80;;
11086;SDS011;5597;47.588;9.642;2023-07-13T09:34:02;3.13;;;2.70;;
11086;SDS011;5597;47.588;9.642;2023-07-13T09:36:28;4.80;;;3.20;;
11086;SDS011;5597;47.588;9.642;2023-07-13T09:38:58;2.90;;;2.70;;
11086;SDS011;5597;47.588;9.642;2023-07-13T09:44:36;4.10;;;2.53;;
11086;SDS011;5597;47.588;9.642;2023-07-13T09:47:15;2.67;;;2.40;;
11086;SDS011;5597;47.588;9.642;2023-07-13T09:49:42;2.50;;;2.30;;
11086;SDS011;5597;47.588;9.642;2023-07-13T09:52:13;4.23;;;2.50;;
11086;SDS011;5597;47.588;9.642;2023-07-13T09:54:44;3.10;;;2.60;;
11086;SDS011;5597;47.588;9.642;2023-07-13T09:57:15;4.30;;;2.67;;
11086;SDS011;5597;47.588;9.642;2023-07-13T09:59:46;3.20;;;2.37;;
11086;SDS011;5597;47.588;9.642;2023-07-13T10:04:55;2.97;;;2.53;;
11086;SDS011;5597;47.588;9.642;2023-07-13T10:07:25;2.80;;;2.40;;
11086;SDS011;5597;47.588;9.642;2023-07-13T10:09:51;2.90;;;1.93;;
11086;SDS011;5597;47.588;9.642;2023-07-13T10:12:21;3.23;;;2.17;;
11086;SDS011;5597;47.588;9.642;2023-07-13T10:14:59;2.50;;;2.17;;
11086;SDS011;5597;47.588;9.642;2023-07-13T10:17:28;2.63;;;2.03;;
11086;SDS011;5597;47.588;9.642;2023-07-13T10:19:57;2.40;;;2.20;;
11086;SDS011;5597;47.588;9.642;2023-07-13T10:22:29;3.97;;;2.80;;
11086;SDS011;5597;47.588;9.642;2023-07-13T10:25:17;3.80;;;2.60;;
11086;SDS011;5597;47.588;9.642;2023-07-13T10:27:45;2.70;;;2.40;;
11086;SDS011;5597;47.588;9.642;2023-07-13T10:32:50;2.70;;;2.27;;
11086;SDS011;5597;47.588;9.642;2023-07-13T10:35:17;2.67;;;2.40;;
11086;SDS011;5597;47.588;9.642;2023-07-13T10:37:48;2.80;;;2.23;;
11086;SDS011;5597;47.588;9.642;2023-07-13T10:40:16;2.90;;;2.60;;
11086;SDS011;5597;47.588;9.642;2023-07-13T10:42:46;3.00;;;2.50;;
11086;SDS011;5597;47.588;9.642;2023-07-13T10:45:15;3.07;;;2.77;;
11086;SDS011;5597;47.588;9.642;2023-07-13T10:47:44;3.27;;;2.80;;
11086;SDS011;5597;47.588;9.642;2023-07-13T10:50:19;2.80;;;2.60;;
11086;SDS011;5597;47.588;9.642;2023-07-13T10:52:48;2.93;;;2.57;;
11086;SDS011;5597;47.588;9.642;2023-07-13T10:58:03;3.70;;;2.83;;
11086;SDS011;5597;47.588;9.642;2023-07-13T11:00:49;4.23;;;2.83;;
11086;SDS011;5597;47.588;9.642;2023-07-13T11:03:25;2.90;;;2.70;;
11086;SDS011;5597;47.588;9.642;2023-07-13T11:06:04;2.50;;;2.30;;
11086;SDS011;5597;47.588;9.642;2023-07-13T11:08:35;4.20;;;2.57;;
11086;SDS011;5597;47.588;9.642;2023-07-13T11:11:02;4.13;;;2.27;;
11086;SDS011;5597;47.588;9.642;2023-07-13T11:18:49;2.83;;;2.37;;
11086;SDS011;5597;47.588;9.642;2023-07-13T11:21:23;4.23;;;2.57;;
11086;SDS011;5597;47.588;9.642;2023-07-13T11:23:53;2.83;;;2.50;;
11086;SDS011;5597;47.588;9.642;2023-07-13T11:31:57;2.70;;;2.50;;
11086;SDS011;5597;47.588;9.642;2023-07-13T11:34:31;4.20;;;2.60;;
11086;SDS011;5597;47.588;9.642;2023-07-13T11:37:01;5.00;;;2.53;;
11086;SDS011;5597;47.588;9.642;2023-07-13T11:39:36;3.57;;;2.40;;
11086;SDS011;5597;47.588;9.642;2023-07-13T11:42:08;3.80;;;2.50;;
11086;SDS011;5597;47.588;9.642;2023-07-13T11:44:41;2.57;;;2.37;;
11086;SDS011;5597;47.588;9.642;2023-07-13T11:47:09;2.73;;;2.50;;
11086;SDS011;5597;47.588;9.642;2023-07-13T11:49:48;3.03;;;2.20;;
11086;SDS011;5597;47.588;9.642;2023-07-13T11:52:17;2.50;;;2.20;;
11086;SDS011;5597;47.588;9.642;2023-07-13T11:54:55;2.60;;;2.13;;
11086;SDS011;5597;47.588;9.642;2023-07-13T11:57:26;2.17;;;1.97;;
11086;SDS011;5597;47.588;9.642;2023-07-13T12:00:00;2.30;;;2.07;;
11086;SDS011;5597;47.588;9.642;2023-07-13T12:02:35;2.43;;;2.20;;
11086;SDS011;5597;47.588;9.642;2023-07-13T12:05:06;2.47;;;1.97;;
11086;SDS011;5597;47.588;9.642;2023-07-13T12:07:37;2.80;;;2.30;;
11086;SDS011;5597;47.588;9.642;2023-07-13T12:12:58;2.83;;;2.30;;
11086;SDS011;5597;47.588;9.642;2023-07-13T12:18:10;2.40;;;2.20;;
11086;SDS011;5597;47.588;9.642;2023-07-13T12:20:50;4.37;;;3.10;;
11086;SDS011;5597;47.588;9.642;2023-07-13T12:23:23;5.23;;;4.17;;
11086;SDS011;5597;47.588;9.642;2023-07-13T12:25:52;4.73;;;4.00;;
11086;SDS011;5597;47.588;9.642;2023-07-13T12:31:00;3.67;;;3.07;;
11086;SDS011;5597;47.588;9.642;2023-07-13T12:33:28;5.50;;;4.97;;
11086;SDS011;5597;47.588;9.642;2023-07-13T12:35:56;5.03;;;3.17;;
11086;SDS011;5597;47.588;9.642;2023-07-13T12:38:24;4.43;;;3.20;;
11086;SDS011;5597;47.588;9.642;2023-07-13T12:40:51;2.90;;;2.57;;
11086;SDS011;5597;47.588;9.642;2023-07-13T12:43:17;2.60;;;2.40;;
11086;SDS011;5597;47.588;9.642;2023-07-13T12:48:21;2.87;;;2.30;;
11086;SDS011;5597;47.588;9.642;2023-07-13T12:50:48;2.90;;;2.10;;
11086;SDS011;5597;47.588;9.642;2023-07-13T12:53:37;2.97;;;2.20;;
11086;SDS011;5597;47.588;9.642;2023-07-13T12:56:04;2.77;;;2.40;;
11086;SDS011;5597;47.588;9.642;2023-07-13T13:01:10;3.20;;;2.40;;
11086;SDS011;5597;47.588;9.642;2023-07-13T13:03:45;2.73;;;2.03;;
11086;SDS011;5597;47.588;9.642;2023-07-13T13:08:43;2.57;;;1.87;;
11086;SDS011;5597;47.588;9.642;2023-07-13T13:11:14;1.83;;;1.70;;
11086;SDS011;5597;47.588;9.642;2023-07-13T13:13:41;1.93;;;1.77;;
11086;SDS011;5597;47.588;9.642;2023-07-13T13:16:31;1.83;;;1.70;;
11086;SDS011;5597;47.588;9.642;2023-07-13T13:19:20;1.63;;;1.53;;
11086;SDS011;5597;47.588;9.642;2023-07-13T13:21:49;1.80;;;1.70;;
11086;SDS011;5597;47.588;9.642;2023-07-13T13:24:18;2.27;;;1.70;;
11086;SDS011;5597;47.588;9.642;2023-07-13T13:26:46;2.57;;;1.70;;
11086;SDS011;5597;47.588;9.642;2023-07-13T13:29:16;2.27;;;1.70;;
11086;SDS011;5597;47.588;9.642;2023-07-13T13:31:43;2.27;;;1.90;;
11086;SDS011;5597;47.588;9.642;2023-07-13T13:34:10;3.17;;;1.80;;
11086;SDS011;5597;47.588;9.642;2023-07-13T13:36:38;1.80;;;1.60;;
11086;SDS011;5597;47.588;9.642;2023-07-13T13:39:15;1.40;;;1.30;;
11086;SDS011;5597;47.588;9.642;2023-07-13T13:41:46;1.50;;;1.40;;
11086;SDS011;5597;47.588;9.642;2023-07-13T13:44:13;1.50;;;1.30;;
11086;SDS011;5597;47.588;9.642;2023-07-13T13:46:41;1.60;;;1.43;;
11086;SDS011;5597;47.588;9.642;2023-07-13T13:49:11;2.10;;;1.50;;
11086;SDS011;5597;47.588;9.642;2023-07-13T13:51:39;1.97;;;1.40;;
11086;SDS011;5597;47.588;9.642;2023-07-13T13:54:10;1.60;;;1.50;;
11086;SDS011;5597;47.588;9.642;2023-07-13T13:56:37;3.27;;;1.87;;
11086;SDS011;5597;47.588;9.642;2023-07-13T13:59:03;2.10;;;1.40;;
11086;SDS011;5597;47.588;9.642;2023-07-13T14:01:29;2.20;;;1.33;;
11086;SDS011;5597;47.588;9.642;2023-07-13T14:03:56;1.80;;;1.40;;
11086;SDS011;5597;47.588;9.642;2023-07-13T14:06:24;2.23;;;1.73;;
11086;SDS011;5597;47.588;9.642;2023-07-13T14:08:50;2.50;;;1.40;;
11086;SDS011;5597;47.588;9.642;2023-07-13T14:11:16;1.73;;;1.57;;
11086;SDS011;5597;47.588;9.642;2023-07-13T14:13:49;2.17;;;1.33;;
11086;SDS011;5597;47.588;9.642;2023-07-13T14:16:26;1.70;;;1.40;;
11086;SDS011;5597;47.588;9.642;2023-07-13T14:18:58;1.47;;;1.37;;
11086;SDS011;5597;47.588;9.642;2023-07-13T14:21:25;1.33;;;1.10;;
11086;SDS011;5597;47.588;9.642;2023-07-13T14:24:00;1.20;;;1.10;;
11086;SDS011;5597;47.588;9.642;2023-07-13T14:26:26;1.50;;;1.40;;
11086;SDS011;5597;47.588;9.642;2023-07-13T14:28:56;2.53;;;1.47;;
11086;SDS011;5597;47.588;9.642;2023-07-13T14:31:23;2.07;;;1.50;;
11086;SDS011;5597;47.588;9.642;2023-07-13T14:33:49;1.93;;;1.30;;
11086;SDS011;5597;47.588;9.642;2023-07-13T14:38:59;1.23;;;1.13;;
11086;SDS011;5597;47.588;9.642;2023-07-13T14:41:36;1.77;;;1.40;;
11086;SDS011;5597;47.588;9.642;2023-07-13T14:44:07;1.50;;;1.40;;
11086;SDS011;5597;47.588;9.642;2023-07-13T14:46:38;1.40;;;1.30;;
11086;SDS011;5597;47.588;9.642;2023-07-13T14:49:04;2.60;;;1.30;;
11086;SDS011;5597;47.588;9.642;2023-07-13T14:51:34;1.30;;;1.20;;
11086;SDS011;5597;47.588;9.642;2023-07-13T14:54:04;1.83;;;1.43;;
11086;SDS011;5597;47.588;9.642;2023-07-13T14:56:30;1.73;;;1.40;;
11086;SDS011;5597;47.588;9.642;2023-07-13T14:58:56;1.73;;;1.50;;
11086;SDS011;5597;47.588;9.642;2023-07-13T15:01:22;1.60;;;1.23;;
11086;SDS011;5597;47.588;9.642;2023-07-13T15:03:49;1.40;;;1.30;;
11086;SDS011;5597;47.588;9.642;2023-07-13T15:06:17;1.87;;;1.50;;
11086;SDS011;5597;47.588;9.642;2023-07-13T15:08:44;1.77;;;1.50;;
11086;SDS011;5597;47.588;9.642;2023-07-13T15:11:10;2.47;;;1.43;;
11086;SDS011;5597;47.588;9.642;2023-07-13T15:13:39;1.87;;;1.40;;
11086;SDS011;5597;47.588;9.642;2023-07-13T15:16:16;1.67;;;1.30;;
11086;SDS011;5597;47.588;9.642;2023-07-13T15:18:45;1.87;;;1.40;;
11086;SDS011;5597;47.588;9.642;2023-07-13T15:21:12;2.07;;;1.37;;
11086;SDS011;5597;47.588;9.642;2023-07-13T15:23:42;1.67;;;1.40;;
11086;SDS011;5597;47.588;9.642;2023-07-13T15:26:11;1.67;;;1.40;;
11086;SDS011;5597;47.588;9.642;2023-07-13T15:28:39;1.97;;;1.40;;
11086;SDS011;5597;47.588;9.642;2023-07-13T15:31:11;1.80;;;1.60;;
11086;SDS011;5597;47.588;9.642;2023-07-13T15:33:42;1.50;;;1.40;;
11086;SDS011;5597;47.588;9.642;2023-07-13T15:36:08;2.30;;;1.40;;
11086;SDS011;5597;47.588;9.642;2023-07-13T15:38:34;1.47;;;1.33;;
11086;SDS011;5597;47.588;9.642;2023-07-13T15:41:04;2.40;;;1.50;;
11086;SDS011;5597;47.588;9.642;2023-07-13T15:43:41;3.70;;;2.80;;
11086;SDS011;5597;47.588;9.642;2023-07-13T15:46:07;3.27;;;2.67;;
11086;SDS011;5597;47.588;9.642;2023-07-13T15:48:32;2.97;;;2.10;;
11086;SDS011;5597;47.588;9.642;2023-07-13T15:51:02;2.20;;;2.00;;
11086;SDS011;5597;47.588;9.642;2023-07-13T15:53:31;1.60;;;1.50;;
11086;SDS011;5597;47.588;9.642;2023-07-13T15:56:16;1.90;;;1.40;;
11086;SDS011;5597;47.588;9.642;2023-07-13T15:58:44;1.90;;;1.50;;